createdAt,value
2018-05-25T00:01:26.327Z,5.97
2018-05-25T00:03:54.070Z,5.53
2018-05-25T00:06:21.726Z,6.50
2018-05-25T00:08:49.366Z,6.20
2018-05-25T00:11:17.021Z,6.40
2018-05-25T00:13:44.729Z,6.20
2018-05-25T00:16:12.397Z,6.00
2018-05-25T00:18:40.054Z,6.20
2018-05-25T00:21:07.811Z,6.60
2018-05-25T00:23:35.447Z,6.60
2018-05-25T00:26:03.116Z,6.80
2018-05-25T00:28:30.802Z,6.70
2018-05-25T00:30:58.475Z,7.43
2018-05-25T00:33:26.241Z,7.47
2018-05-25T00:35:53.891Z,7.03
2018-05-25T00:38:21.654Z,5.93
2018-05-25T00:40:49.295Z,6.70
2018-05-25T00:43:16.957Z,7.57
2018-05-25T00:45:44.627Z,6.23
2018-05-25T00:48:12.293Z,6.60
2018-05-25T00:50:39.943Z,7.27
2018-05-25T00:53:07.595Z,5.90
2018-05-25T00:55:40.169Z,6.33
2018-05-25T00:58:07.841Z,6.50
2018-05-25T01:00:35.474Z,6.80
2018-05-25T01:03:03.131Z,6.80
2018-05-25T01:05:30.867Z,6.80
2018-05-25T01:07:58.627Z,7.13
2018-05-25T01:10:26.261Z,7.90
2018-05-25T01:12:53.917Z,8.40
2018-05-25T01:15:21.545Z,9.13
2018-05-25T01:17:49.207Z,8.23
2018-05-25T01:20:16.859Z,8.00
2018-05-25T01:22:44.522Z,8.90
2018-05-25T01:25:12.167Z,8.57
2018-05-25T01:27:39.825Z,7.43
2018-05-25T01:30:07.485Z,7.90
2018-05-25T01:32:35.172Z,9.10
2018-05-25T01:35:02.805Z,9.10
2018-05-25T01:37:30.570Z,8.70
2018-05-25T01:39:58.197Z,8.37
2018-05-25T01:42:25.897Z,8.40
2018-05-25T01:44:53.667Z,7.93
2018-05-25T01:47:21.296Z,8.03
2018-05-25T01:49:48.985Z,8.77
2018-05-25T01:52:16.651Z,9.30
2018-05-25T01:54:44.324Z,8.37
2018-05-25T01:57:11.961Z,8.50
2018-05-25T01:59:39.637Z,8.20
2018-05-25T02:02:07.312Z,8.63
2018-05-25T02:04:34.975Z,8.60
2018-05-25T02:07:02.736Z,10.20
2018-05-25T02:09:30.490Z,9.67
2018-05-25T02:11:58.165Z,8.83
2018-05-25T02:14:25.829Z,8.33
2018-05-25T02:16:53.467Z,9.63
2018-05-25T02:19:21.130Z,8.43
2018-05-25T02:21:48.765Z,7.37
2018-05-25T02:24:16.417Z,9.00
2018-05-25T02:26:44.059Z,8.70
2018-05-25T02:29:11.793Z,9.60
2018-05-25T02:31:39.453Z,9.20
2018-05-25T02:34:07.111Z,9.40
2018-05-25T02:36:34.787Z,9.60
2018-05-25T02:39:02.451Z,8.90
2018-05-25T02:41:30.086Z,9.30
2018-05-25T02:43:57.765Z,8.50
2018-05-25T02:46:25.400Z,8.80
2018-05-25T02:48:53.070Z,9.40
2018-05-25T02:51:20.763Z,10.00
2018-05-25T02:53:48.422Z,10.57
2018-05-25T02:56:16.072Z,10.13
2018-05-25T02:58:43.706Z,10.90
2018-05-25T03:01:11.385Z,10.20
2018-05-25T03:03:39.034Z,9.43
2018-05-25T03:06:06.739Z,10.57
2018-05-25T03:08:34.393Z,10.77
2018-05-25T03:11:02.054Z,10.93
2018-05-25T03:13:29.734Z,10.80
2018-05-25T03:15:57.413Z,10.57
2018-05-25T03:18:25.054Z,10.10
2018-05-25T03:20:52.713Z,10.33
2018-05-25T03:23:20.345Z,10.70
2018-05-25T03:25:48.013Z,10.00
2018-05-25T03:28:15.654Z,9.30
2018-05-25T03:30:43.350Z,10.53
2018-05-25T03:33:10.987Z,11.47
2018-05-25T03:35:38.677Z,9.30
2018-05-25T03:38:06.311Z,11.67
2018-05-25T03:40:33.979Z,9.43
2018-05-25T03:43:01.665Z,9.60
2018-05-25T03:45:29.343Z,10.90
2018-05-25T03:47:57.147Z,9.97
2018-05-25T03:50:24.805Z,10.80
2018-05-25T03:52:52.531Z,10.80
2018-05-25T03:55:20.200Z,10.80
2018-05-25T03:57:48.009Z,10.23
2018-05-25T04:00:27.489Z,10.07
2018-05-25T04:02:56.779Z,9.87
2018-05-25T04:05:24.450Z,8.90
2018-05-25T04:07:52.127Z,9.03
2018-05-25T04:10:19.767Z,9.27
2018-05-25T04:12:47.433Z,8.53
2018-05-25T04:15:15.112Z,8.80
2018-05-25T04:17:42.787Z,8.03
2018-05-25T04:20:10.433Z,8.30
2018-05-25T04:22:38.089Z,7.80
2018-05-25T04:25:05.754Z,8.07
2018-05-25T04:27:33.539Z,8.43
2018-05-25T04:30:01.186Z,7.53
2018-05-25T04:32:28.841Z,8.77
2018-05-25T04:34:56.478Z,8.20
2018-05-25T04:37:24.180Z,8.30
2018-05-25T04:39:51.814Z,7.60
2018-05-25T04:42:19.479Z,8.80
2018-05-25T04:44:47.117Z,8.30
2018-05-25T04:47:14.823Z,7.50
2018-05-25T04:49:42.494Z,8.07
2018-05-25T04:52:10.151Z,7.13
2018-05-25T04:54:37.788Z,7.23
2018-05-25T04:57:05.465Z,6.23
2018-05-25T04:59:33.206Z,5.10
2018-05-25T05:02:00.907Z,5.60
2018-05-25T05:04:28.564Z,7.30
2018-05-25T05:06:56.231Z,6.50
2018-05-25T05:09:23.861Z,5.33
2018-05-25T05:11:51.518Z,5.67
2018-05-25T05:14:19.146Z,5.70
2018-05-25T05:16:46.801Z,5.63
2018-05-25T05:19:14.539Z,6.67
2018-05-25T05:21:42.308Z,5.67
2018-05-25T05:24:09.938Z,5.60
2018-05-25T05:26:37.623Z,6.20
2018-05-25T05:29:05.274Z,5.77
2018-05-25T05:31:32.916Z,6.60
2018-05-25T05:34:00.615Z,6.10
2018-05-25T05:36:28.259Z,6.20
2018-05-25T05:38:55.923Z,6.30
2018-05-25T05:41:23.597Z,5.30
2018-05-25T05:43:51.361Z,5.60
2018-05-25T05:46:19.035Z,5.90
2018-05-25T05:48:46.695Z,6.33
2018-05-25T05:51:14.339Z,6.40
2018-05-25T05:53:42.019Z,6.53
2018-05-25T05:56:09.659Z,6.03
2018-05-25T05:58:37.323Z,5.80
2018-05-25T06:01:04.993Z,5.13
2018-05-25T06:03:32.655Z,6.00
2018-05-25T06:06:00.294Z,6.60
2018-05-25T06:08:27.960Z,5.53
2018-05-25T06:10:55.600Z,6.00
2018-05-25T06:13:23.262Z,6.03
2018-05-25T06:15:50.903Z,5.27
2018-05-25T06:18:18.559Z,5.90
2018-05-25T06:20:46.181Z,5.10
2018-05-25T06:23:13.847Z,6.63
2018-05-25T06:25:41.488Z,5.90
2018-05-25T06:28:09.148Z,5.00
2018-05-25T06:30:36.846Z,6.67
2018-05-25T06:33:04.511Z,5.70
2018-05-25T06:35:32.187Z,5.33
2018-05-25T06:37:59.833Z,5.70
2018-05-25T06:40:27.495Z,5.30
2018-05-25T06:42:55.157Z,5.77
2018-05-25T06:45:22.821Z,5.50
2018-05-25T06:47:50.482Z,6.33
2018-05-25T06:50:18.246Z,5.93
2018-05-25T06:52:45.877Z,5.50
2018-05-25T06:55:13.544Z,5.50
2018-05-25T06:57:41.211Z,5.40
2018-05-25T07:00:08.873Z,6.57
2018-05-25T07:02:36.575Z,5.53
2018-05-25T07:05:04.335Z,5.77
2018-05-25T07:07:31.965Z,5.30
2018-05-25T07:09:59.622Z,5.10
2018-05-25T07:12:27.265Z,5.03
2018-05-25T07:14:54.982Z,5.63
2018-05-25T07:17:22.622Z,6.13
2018-05-25T07:19:50.319Z,5.77
2018-05-25T07:22:17.975Z,5.87
2018-05-25T07:24:45.634Z,6.33
2018-05-25T07:27:13.262Z,5.13
2018-05-25T07:29:40.959Z,6.20
2018-05-25T07:32:08.628Z,5.20
2018-05-25T07:34:36.287Z,5.50
2018-05-25T07:37:03.913Z,5.30
2018-05-25T07:39:31.615Z,5.90
2018-05-25T07:41:59.241Z,6.17
2018-05-25T07:44:26.907Z,5.40
2018-05-25T07:46:54.538Z,5.30
2018-05-25T07:49:22.263Z,4.20
2018-05-25T07:51:49.928Z,5.37
2018-05-25T07:54:17.592Z,4.50
2018-05-25T07:56:45.257Z,4.90
2018-05-25T07:59:12.885Z,4.23
2018-05-25T08:01:40.539Z,5.83
2018-05-25T08:04:08.243Z,4.23
2018-05-25T08:06:35.897Z,4.43
2018-05-25T08:09:03.533Z,4.07
2018-05-25T08:11:31.189Z,6.00
2018-05-25T08:13:58.827Z,3.67
2018-05-25T08:16:26.485Z,3.70
2018-05-25T08:18:54.124Z,3.70
2018-05-25T08:21:21.788Z,4.30
2018-05-25T08:23:49.526Z,3.60
2018-05-25T08:26:17.293Z,4.10
2018-05-25T08:28:44.924Z,2.70
2018-05-25T08:31:12.593Z,3.27
2018-05-25T08:33:40.239Z,2.40
2018-05-25T08:36:07.959Z,3.60
2018-05-25T08:38:35.599Z,3.27
2018-05-25T08:41:03.279Z,3.30
2018-05-25T08:43:30.926Z,2.77
2018-05-25T08:45:58.588Z,2.60
2018-05-25T08:48:26.249Z,2.20
2018-05-25T08:50:53.901Z,2.60
2018-05-25T08:53:21.552Z,2.30
2018-05-25T08:55:49.211Z,2.37
2018-05-25T08:58:16.841Z,2.77
2018-05-25T09:00:44.527Z,2.17
2018-05-25T09:03:12.210Z,1.80
2018-05-25T09:05:39.841Z,1.70
2018-05-25T09:08:07.554Z,2.20
2018-05-25T09:10:35.188Z,2.83
2018-05-25T09:13:02.841Z,1.50
2018-05-25T09:15:30.480Z,2.20
2018-05-25T09:17:58.260Z,1.43
2018-05-25T09:20:25.899Z,1.77
2018-05-25T09:22:53.555Z,1.73
2018-05-25T09:25:21.200Z,1.83
2018-05-25T09:27:48.967Z,1.37
2018-05-25T09:30:16.603Z,1.60
2018-05-25T09:32:44.266Z,1.53
2018-05-25T09:35:11.906Z,1.73
2018-05-25T09:37:39.557Z,1.67
2018-05-25T09:40:07.270Z,1.90
2018-05-25T09:42:34.935Z,1.43
2018-05-25T09:45:02.571Z,1.83
2018-05-25T09:47:30.267Z,1.80
2018-05-25T09:49:57.931Z,1.97
2018-05-25T09:52:25.585Z,1.87
2018-05-25T09:54:53.246Z,1.77
2018-05-25T09:57:20.911Z,3.60
2018-05-25T09:59:48.545Z,2.10
2018-05-25T10:02:16.207Z,2.20
2018-05-25T10:04:43.847Z,2.10
2018-05-25T10:07:11.661Z,2.07
2018-05-25T10:09:39.296Z,2.47
2018-05-25T10:12:06.999Z,1.87
2018-05-25T10:14:34.667Z,2.37
2018-05-25T10:17:02.310Z,2.37
2018-05-25T10:19:29.961Z,2.47
2018-05-25T10:21:57.634Z,2.20
2018-05-25T10:24:25.411Z,2.40
2018-05-25T10:26:53.066Z,2.50
2018-05-25T10:29:20.835Z,2.07
2018-05-25T10:31:48.503Z,2.20
2018-05-25T10:34:16.253Z,2.77
2018-05-25T10:36:43.933Z,2.27
2018-05-25T10:39:11.681Z,2.30
2018-05-25T10:41:39.314Z,2.00
2018-05-25T10:44:06.975Z,2.07
2018-05-25T10:46:34.588Z,2.50
2018-05-25T10:49:02.313Z,2.80
2018-05-25T10:51:29.977Z,2.37
2018-05-25T10:53:57.633Z,2.33
2018-05-25T10:56:25.244Z,1.80
2018-05-25T10:58:52.891Z,2.20
2018-05-25T11:01:20.513Z,2.00
2018-05-25T11:03:48.157Z,2.07
2018-05-25T11:06:15.791Z,2.07
2018-05-25T11:08:43.429Z,2.30
2018-05-25T11:11:11.049Z,2.03
2018-05-25T11:13:38.678Z,2.03
2018-05-25T11:16:06.394Z,2.00
2018-05-25T11:18:34.051Z,2.00
2018-05-25T11:21:01.780Z,2.30
2018-05-25T11:23:29.395Z,3.03
2018-05-25T11:25:56.998Z,2.00
2018-05-25T11:28:24.598Z,1.97
2018-05-25T11:30:52.259Z,3.00
2018-05-25T11:33:19.892Z,2.67
2018-05-25T11:35:47.540Z,1.47
2018-05-25T11:38:15.195Z,1.97
2018-05-25T11:40:42.832Z,2.07
2018-05-25T11:43:10.447Z,1.73
2018-05-25T11:45:38.133Z,1.70
2018-05-25T11:48:05.748Z,1.97
2018-05-25T11:50:33.383Z,1.37
2018-05-25T11:53:01.030Z,2.07
2018-05-25T11:55:28.653Z,1.83
2018-05-25T11:57:56.257Z,1.63
2018-05-25T12:00:24.005Z,1.90
2018-05-25T12:02:51.613Z,2.13
2018-05-25T12:05:19.344Z,2.10
2018-05-25T12:07:46.991Z,1.87
2018-05-25T12:10:14.678Z,2.53
2018-05-25T12:12:42.304Z,1.80
2018-05-25T12:15:10.571Z,1.67
2018-05-25T12:17:38.257Z,1.27
2018-05-25T12:20:05.931Z,1.67
2018-05-25T12:22:33.587Z,1.50
2018-05-25T12:25:01.220Z,2.57
2018-05-25T12:27:28.822Z,1.00
2018-05-25T12:29:56.461Z,1.90
2018-05-25T12:32:24.130Z,1.20
2018-05-25T12:34:51.791Z,1.10
2018-05-25T12:37:19.397Z,1.60
2018-05-25T12:39:47.056Z,0.97
2018-05-25T12:42:14.677Z,1.63
2018-05-25T12:44:54.127Z,1.10
2018-05-25T12:47:21.735Z,1.37
2018-05-25T12:49:49.343Z,1.43
2018-05-25T12:52:16.976Z,1.10
2018-05-25T12:54:44.662Z,1.13
2018-05-25T12:57:12.339Z,1.40
2018-05-25T12:59:40.000Z,1.73
2018-05-25T13:02:07.630Z,1.20
2018-05-25T13:04:35.229Z,1.57
2018-05-25T13:07:02.884Z,1.87
2018-05-25T13:09:30.504Z,2.10
2018-05-25T13:11:58.143Z,1.53
2018-05-25T13:14:25.751Z,1.80
2018-05-25T13:16:53.423Z,1.40
2018-05-25T13:19:21.094Z,1.80
2018-05-25T13:21:48.778Z,1.73
2018-05-25T13:24:16.358Z,1.67
2018-05-25T13:26:43.994Z,2.33
2018-05-25T13:29:11.606Z,1.77
2018-05-25T13:31:39.255Z,2.30
2018-05-25T13:34:06.857Z,2.10
2018-05-25T13:36:34.527Z,2.00
2018-05-25T13:39:02.187Z,1.43
2018-05-25T13:41:29.855Z,1.87
2018-05-25T13:43:57.515Z,1.80
2018-05-25T13:46:25.280Z,2.23
2018-05-25T13:48:52.882Z,1.50
2018-05-25T13:51:20.505Z,1.93
2018-05-25T13:53:48.168Z,1.80
2018-05-25T13:56:15.770Z,1.60
2018-05-25T13:58:43.489Z,2.13
2018-05-25T14:01:11.118Z,2.00
2018-05-25T14:03:38.806Z,1.93
2018-05-25T14:06:06.480Z,1.60
2018-05-25T14:08:34.106Z,1.80
2018-05-25T14:11:01.727Z,1.80
2018-05-25T14:13:29.365Z,2.00
2018-05-25T14:15:56.974Z,1.53
2018-05-25T14:18:24.633Z,1.60
2018-05-25T14:20:52.241Z,1.97
2018-05-25T14:23:19.866Z,1.77
2018-05-25T14:25:47.479Z,2.37
2018-05-25T14:28:15.225Z,2.07
2018-05-25T14:30:42.830Z,2.20
2018-05-25T14:33:10.459Z,1.90
2018-05-25T14:35:38.066Z,2.37
2018-05-25T14:38:05.700Z,1.90
2018-05-25T14:40:33.297Z,1.83
2018-05-25T14:43:01.004Z,1.90
2018-05-25T14:45:28.616Z,2.10
2018-05-25T14:47:56.340Z,1.53
2018-05-25T14:50:24.083Z,2.00
2018-05-25T14:52:51.713Z,1.90
2018-05-25T14:55:19.317Z,2.13
2018-05-25T14:57:46.979Z,2.03
2018-05-25T15:00:14.641Z,1.73
2018-05-25T15:02:42.266Z,1.70
2018-05-25T15:05:09.870Z,2.30
2018-05-25T15:07:37.520Z,1.60
2018-05-25T15:10:05.169Z,2.40
2018-05-25T15:12:32.841Z,2.50
2018-05-25T15:15:00.475Z,1.37
2018-05-25T15:17:28.088Z,2.40
2018-05-25T15:19:55.716Z,2.20
2018-05-25T15:22:23.328Z,2.53
2018-05-25T15:24:50.971Z,2.50
2018-05-25T15:27:18.610Z,2.73
2018-05-25T15:29:46.287Z,2.83
2018-05-25T15:32:13.894Z,2.20
2018-05-25T15:34:41.531Z,2.73
2018-05-25T15:37:09.133Z,2.70
2018-05-25T15:39:36.816Z,2.67
2018-05-25T15:42:04.424Z,2.63
2018-05-25T15:44:32.055Z,2.10
2018-05-25T15:46:59.705Z,3.20
2018-05-25T15:49:27.347Z,2.80
2018-05-25T15:51:54.964Z,2.50
2018-05-25T15:54:22.594Z,2.80
2018-05-25T15:56:50.209Z,2.80
2018-05-25T15:59:17.847Z,2.20
2018-05-25T16:01:45.489Z,2.60
2018-05-25T16:04:13.114Z,2.47
2018-05-25T16:06:40.714Z,2.50
2018-05-25T16:09:08.363Z,2.20
2018-05-25T16:11:35.975Z,3.00
2018-05-25T16:14:03.689Z,3.10
2018-05-25T16:16:31.294Z,2.33
2018-05-25T16:18:59.029Z,2.80
2018-05-25T16:21:26.647Z,3.03
2018-05-25T16:23:54.399Z,2.60
2018-05-25T16:26:22.102Z,1.97
2018-05-25T16:28:49.721Z,2.73
2018-05-25T16:31:17.350Z,2.47
2018-05-25T16:33:44.964Z,3.40
2018-05-25T16:36:12.591Z,2.70
2018-05-25T16:38:40.200Z,2.43
2018-05-25T16:41:07.869Z,2.53
2018-05-25T16:43:35.549Z,2.63
2018-05-25T16:46:03.302Z,3.00
2018-05-25T16:48:30.919Z,3.00
2018-05-25T16:50:58.546Z,3.50
2018-05-25T16:53:26.149Z,3.47
2018-05-25T16:55:53.785Z,3.10
2018-05-25T16:58:21.398Z,2.87
2018-05-25T17:00:49.065Z,2.60
2018-05-25T17:03:16.671Z,2.90
2018-05-25T17:05:44.394Z,2.57
2018-05-25T17:08:12.068Z,2.43
2018-05-25T17:10:39.822Z,2.70
2018-05-25T17:13:07.491Z,2.83
2018-05-25T17:15:35.154Z,3.20
2018-05-25T17:18:02.793Z,3.20
2018-05-25T17:20:30.484Z,2.73
2018-05-25T17:22:58.139Z,2.57
2018-05-25T17:25:25.793Z,2.60
2018-05-25T17:27:53.558Z,3.03
2018-05-25T17:30:21.189Z,2.53
2018-05-25T17:32:48.798Z,2.80
2018-05-25T17:35:16.548Z,2.70
2018-05-25T17:37:44.210Z,3.10
2018-05-25T17:40:11.810Z,2.37
2018-05-25T17:42:39.539Z,2.57
2018-05-25T17:45:07.160Z,2.90
2018-05-25T17:47:34.859Z,3.03
2018-05-25T17:50:02.494Z,2.53
2018-05-25T17:52:30.134Z,3.50
2018-05-25T17:54:57.747Z,2.80
2018-05-25T17:57:25.392Z,3.17
2018-05-25T17:59:53.070Z,2.53
2018-05-25T18:02:20.700Z,3.30
2018-05-25T18:04:48.402Z,2.60
2018-05-25T18:07:16.269Z,4.67
2018-05-25T18:09:43.869Z,3.50
2018-05-25T18:12:11.506Z,3.03
2018-05-25T18:14:39.113Z,2.80
2018-05-25T18:17:06.807Z,3.90
2018-05-25T18:19:34.418Z,3.80
2018-05-25T18:22:02.041Z,2.70
2018-05-25T18:24:29.645Z,3.70
2018-05-25T18:26:57.270Z,3.30
2018-05-25T18:29:24.879Z,2.80
2018-05-25T18:31:52.516Z,3.67
2018-05-25T18:34:20.240Z,2.93
2018-05-25T18:36:47.884Z,2.77
2018-05-25T18:39:15.493Z,3.77
2018-05-25T18:41:43.128Z,2.93
2018-05-25T18:44:10.790Z,3.33
2018-05-25T18:46:38.459Z,3.20
2018-05-25T18:49:06.086Z,3.40
2018-05-25T18:51:33.690Z,2.93
2018-05-25T18:54:13.127Z,3.60
2018-05-25T18:56:40.777Z,3.60
2018-05-25T18:59:08.450Z,3.90
2018-05-25T19:01:36.108Z,3.77
2018-05-25T19:04:03.798Z,3.90
2018-05-25T19:06:31.436Z,3.40
2018-05-25T19:08:59.066Z,3.67
2018-05-25T19:11:26.693Z,3.83
2018-05-25T19:13:54.338Z,4.27
2018-05-25T19:16:21.948Z,3.70
2018-05-25T19:18:49.633Z,3.57
2018-05-25T19:21:17.295Z,3.20
2018-05-25T19:23:44.931Z,3.70
2018-05-25T19:26:12.557Z,4.00
2018-05-25T19:28:40.291Z,3.83
2018-05-25T19:31:07.912Z,4.13
2018-05-25T19:33:35.606Z,3.90
2018-05-25T19:36:03.278Z,3.77
2018-05-25T19:38:30.944Z,3.50
2018-05-25T19:40:58.694Z,3.73
2018-05-25T19:43:26.363Z,4.00
2018-05-25T19:45:54.032Z,4.00
2018-05-25T19:48:21.671Z,3.93
2018-05-25T19:50:49.355Z,4.50
2018-05-25T19:53:16.996Z,4.50
2018-05-25T19:55:44.681Z,4.90
2018-05-25T19:58:12.400Z,4.00
2018-05-25T20:00:54.535Z,3.70
2018-05-25T20:03:22.171Z,4.17
2018-05-25T20:05:49.844Z,4.43
2018-05-25T20:08:17.494Z,4.00
2018-05-25T20:10:45.128Z,4.33
2018-05-25T20:13:12.750Z,4.50
2018-05-25T20:15:40.424Z,4.30
2018-05-25T20:18:08.035Z,4.53
2018-05-25T20:20:35.676Z,4.60
2018-05-25T20:23:03.408Z,5.40
2018-05-25T20:25:31.062Z,5.70
2018-05-25T20:27:58.679Z,4.90
2018-05-25T20:30:26.306Z,5.70
2018-05-25T20:32:53.910Z,5.10
2018-05-25T20:35:21.548Z,5.10
2018-05-25T20:37:49.159Z,4.57
2018-05-25T20:40:16.791Z,7.30
2018-05-25T20:42:44.394Z,5.50
2018-05-25T20:45:12.057Z,6.57
2018-05-25T20:47:39.675Z,5.47
2018-05-25T20:50:07.321Z,5.30
2018-05-25T20:52:34.932Z,5.60
2018-05-25T20:55:02.577Z,4.53
2018-05-25T20:57:30.192Z,5.60
2018-05-25T20:59:57.822Z,5.30
2018-05-25T21:02:25.436Z,6.77
2018-05-25T21:04:53.070Z,4.90
2018-05-25T21:07:20.724Z,5.00
2018-05-25T21:09:48.364Z,5.87
2018-05-25T21:12:15.988Z,6.00
2018-05-25T21:14:43.633Z,5.17
2018-05-25T21:17:11.254Z,4.83
2018-05-25T21:19:38.924Z,5.40
2018-05-25T21:22:06.587Z,5.47
2018-05-25T21:24:34.203Z,5.80
2018-05-25T21:27:01.912Z,4.90
2018-05-25T21:29:29.527Z,5.40
2018-05-25T21:31:57.176Z,5.43
2018-05-25T21:34:24.796Z,5.50
2018-05-25T21:36:52.431Z,4.57
2018-05-25T21:39:20.109Z,4.33
2018-05-25T21:41:47.784Z,5.60
2018-05-25T21:44:15.448Z,5.03
2018-05-25T21:46:43.078Z,4.57
2018-05-25T21:49:10.686Z,5.40
2018-05-25T21:51:38.314Z,5.30
2018-05-25T21:54:05.929Z,5.40
2018-05-25T21:56:33.646Z,5.07
2018-05-25T21:59:01.314Z,5.13
2018-05-25T22:01:28.944Z,5.97
2018-05-25T22:03:56.559Z,6.50
2018-05-25T22:06:24.201Z,6.77
2018-05-25T22:08:51.813Z,6.50
2018-05-25T22:11:19.447Z,6.57
2018-05-25T22:13:47.050Z,6.60
2018-05-25T22:16:14.751Z,5.07
2018-05-25T22:18:42.357Z,6.50
2018-05-25T22:21:09.998Z,6.00
2018-05-25T22:23:37.607Z,5.50
2018-05-25T22:26:05.239Z,5.87
2018-05-25T22:28:32.953Z,5.87
2018-05-25T22:31:00.583Z,6.60
2018-05-25T22:33:28.241Z,6.10
2018-05-25T22:35:55.876Z,7.97
2018-05-25T22:38:23.498Z,7.33
2018-05-25T22:40:51.168Z,6.57
2018-05-25T22:43:30.721Z,7.00
2018-05-25T22:46:10.137Z,7.40
2018-05-25T22:48:49.588Z,7.77
2018-05-25T22:51:28.943Z,5.60
2018-05-25T22:54:01.675Z,6.90
2018-05-25T22:56:29.336Z,8.27
2018-05-25T22:58:56.961Z,7.50
2018-05-25T23:01:24.570Z,6.53
2018-05-25T23:03:52.198Z,7.63
2018-05-25T23:06:19.811Z,7.30
2018-05-25T23:08:47.438Z,6.10
2018-05-25T23:11:15.046Z,8.37
2018-05-25T23:13:42.690Z,8.40
2018-05-25T23:16:10.352Z,8.00
2018-05-25T23:18:38.032Z,8.00
2018-05-25T23:21:05.656Z,8.20
2018-05-25T23:23:33.342Z,8.77
2018-05-25T23:26:01.019Z,8.67
2018-05-25T23:28:28.650Z,8.83
2018-05-25T23:30:56.272Z,12.63
2018-05-25T23:33:23.905Z,11.77
2018-05-25T23:35:51.515Z,7.70
2018-05-25T23:38:19.152Z,8.50
2018-05-25T23:40:46.760Z,8.57
2018-05-25T23:43:14.390Z,8.40
2018-05-25T23:45:41.993Z,8.77
2018-05-25T23:48:09.669Z,7.30
2018-05-25T23:50:37.283Z,8.00
2018-05-25T23:53:04.888Z,9.33
2018-05-25T23:55:32.527Z,7.37
2018-05-25T23:58:00.676Z,8.23
